Time;durP1;ratioP1;P1;durP2;ratioP2;P2;SDS_P1;SDS_P2;PMS_P1;PMS_P2;Temp;Humidity;BMP_temperature;BMP_pressure;BME280_temperature;BME280_humidity;BME280_pressure;Samples;Min_cycle;Max_cycle;Signal;HPM_P1;HPM_P2
2023/04/26 00:01:03;;;;;;;7.95;3.47;;;3.20;99.90;;;;;;7371914;19;20490;-61
2023/04/26 00:03:33;;;;;;;8.52;3.15;;;3.20;99.90;;;;;;7372044;19;20701;-62
2023/04/26 00:06:05;;;;;;;8.95;4.22;;;3.20;99.90;;;;;;7370225;19;20014;-61
2023/04/26 00:08:31;;;;;;;8.50;3.63;;;3.10;99.90;;;;;;7371810;19;20490;-62
2023/04/26 00:10:57;;;;;;;10.63;3.55;;;3.10;99.90;;;;;;7372331;19;20014;-61
2023/04/26 00:13:24;;;;;;;9.27;4.05;;;3.10;99.90;;;;;;7369462;19;20019;-61
2023/04/26 00:15:50;;;;;;;10.85;3.88;;;3.10;99.90;;;;;;7368123;19;20023;-61
2023/04/26 00:18:19;;;;;;;10.98;3.53;;;3.00;99.90;;;;;;7372178;19;20631;-61
2023/04/26 00:20:45;;;;;;;6.10;3.13;;;3.10;99.90;;;;;;7375429;19;20006;-61
2023/04/26 00:23:11;;;;;;;14.20;3.92;;;3.10;99.90;;;;;;7374265;19;20026;-61
2023/04/26 00:25:38;;;;;;;11.35;3.70;;;3.10;99.90;;;;;;7372470;19;20022;-61
2023/04/26 00:28:04;;;;;;;11.68;4.13;;;3.20;99.90;;;;;;7371817;19;20803;-61
2023/04/26 00:30:31;;;;;;;10.32;3.83;;;3.20;99.90;;;;;;7375661;19;20817;-64
2023/04/26 00:32:57;;;;;;;15.68;3.80;;;3.30;99.90;;;;;;7370782;19;20019;-64
2023/04/26 00:35:23;;;;;;;12.95;4.03;;;3.30;99.90;;;;;;7367457;19;20026;-65
2023/04/26 00:37:51;;;;;;;8.25;3.00;;;3.40;99.90;;;;;;7371445;19;20654;-65
2023/04/26 00:40:19;;;;;;;8.07;3.92;;;3.40;99.90;;;;;;7372254;19;20090;-65
2023/04/26 00:42:46;;;;;;;11.50;3.92;;;3.50;99.90;;;;;;7370252;19;20706;-65
2023/04/26 00:45:12;;;;;;;6.63;3.55;;;3.50;99.90;;;;;;7370244;19;20023;-61
2023/04/26 00:47:39;;;;;;;7.90;3.75;;;3.60;99.90;;;;;;7373197;19;20021;-65
2023/04/26 00:50:07;;;;;;;9.88;3.63;;;3.60;99.90;;;;;;7375485;19;20340;-61
2023/04/26 00:52:33;;;;;;;9.60;3.45;;;3.70;99.90;;;;;;7377034;19;20019;-61
2023/04/26 00:55:00;;;;;;;10.48;3.40;;;3.70;99.90;;;;;;7376450;19;20014;-61
2023/04/26 00:57:26;;;;;;;8.60;3.88;;;3.80;99.90;;;;;;7378013;19;20029;-61
2023/04/26 00:59:52;;;;;;;8.32;3.30;;;3.80;99.90;;;;;;7376360;19;20374;-64
2023/04/26 01:02:19;;;;;;;10.38;3.60;;;3.80;99.90;;;;;;7376085;19;21120;-65
2023/04/26 01:04:47;;;;;;;11.68;3.70;;;3.80;99.90;;;;;;7377191;19;20011;-64
2023/04/26 01:07:13;;;;;;;11.77;3.83;;;3.90;99.90;;;;;;7375670;19;20022;-64
2023/04/26 01:09:39;;;;;;;9.07;3.70;;;3.90;99.90;;;;;;7374973;19;20022;-65
2023/04/26 01:12:07;;;;;;;9.63;3.50;;;3.90;99.90;;;;;;7373438;19;20084;-64
2023/04/26 01:14:35;;;;;;;7.53;3.60;;;3.90;99.90;;;;;;7367861;19;20014;-61
2023/04/26 01:17:02;;;;;;;13.13;4.05;;;3.90;99.90;;;;;;7372704;19;20054;-61
2023/04/26 01:19:28;;;;;;;8.85;3.63;;;3.80;99.90;;;;;;7376272;19;20010;-61
2023/04/26 01:21:55;;;;;;;12.18;3.35;;;3.80;99.90;;;;;;7374886;19;20018;-64
2023/04/26 01:24:21;;;;;;;8.85;3.58;;;3.70;99.90;;;;;;7375563;19;20010;-65
2023/04/26 01:26:47;;;;;;;6.85;3.10;;;3.70;99.90;;;;;;7376729;19;20010;-64
2023/04/26 01:29:18;;;;;;;12.57;4.22;;;3.70;99.90;;;;;;7376851;19;20035;-65
2023/04/26 01:31:46;;;;;;;11.02;3.40;;;3.50;99.90;;;;;;7378081;19;20025;-65
2023/04/26 01:34:13;;;;;;;13.60;4.10;;;3.50;99.90;;;;;;7375492;19;20019;-65
2023/04/26 01:36:40;;;;;;;11.43;4.30;;;3.40;99.90;;;;;;7376251;19;20086;-64
2023/04/26 01:39:07;;;;;;;11.88;3.47;;;3.30;99.90;;;;;;7376349;19;20023;-65
2023/04/26 01:41:34;;;;;;;6.75;3.50;;;3.20;99.90;;;;;;7377807;19;20031;-64
2023/04/26 01:44:00;;;;;;;10.25;3.53;;;3.20;99.90;;;;;;7376430;19;20543;-64
2023/04/26 01:46:27;;;;;;;9.15;3.90;;;3.10;99.90;;;;;;7369642;19;20022;-64
2023/04/26 01:48:53;;;;;;;8.82;3.67;;;3.10;99.90;;;;;;7371209;19;20073;-64
2023/04/26 01:51:20;;;;;;;5.82;3.58;;;3.00;99.90;;;;;;7373253;19;20018;-64
2023/04/26 01:53:46;;;;;;;7.53;3.53;;;3.00;99.90;;;;;;7378521;19;20014;-65
2023/04/26 01:56:12;;;;;;;7.97;3.78;;;2.90;99.90;;;;;;7373523;19;20018;-64
2023/04/26 01:58:39;;;;;;;8.18;3.95;;;2.90;99.90;;;;;;7378717;19;20110;-61
2023/04/26 02:01:07;;;;;;;7.45;3.65;;;3.00;99.90;;;;;;7377193;19;20024;-61
2023/04/26 02:03:33;;;;;;;10.80;3.88;;;3.00;99.90;;;;;;7377206;19;20022;-61
2023/04/26 02:06:01;;;;;;;9.52;3.20;;;3.10;99.90;;;;;;7369804;19;20806;-62
2023/04/26 02:08:28;;;;;;;11.27;3.78;;;3.20;99.90;;;;;;7374432;19;20102;-61
2023/04/26 02:10:55;;;;;;;13.48;3.45;;;3.30;99.90;;;;;;7372787;19;20018;-61
2023/04/26 02:13:21;;;;;;;10.20;3.45;;;3.40;99.90;;;;;;7376585;19;20030;-61
2023/04/26 02:15:50;;;;;;;5.97;3.13;;;3.50;99.90;;;;;;7370487;19;20026;-61
2023/04/26 02:18:16;;;;;;;11.95;3.35;;;3.50;99.90;;;;;;7375944;19;20014;-61
2023/04/26 02:20:44;;;;;;;6.32;3.15;;;3.70;99.90;;;;;;7372292;19;20026;-61
2023/04/26 02:23:11;;;;;;;9.60;3.17;;;3.70;99.90;;;;;;7372233;19;20046;-61
2023/04/26 02:25:38;;;;;;;10.32;3.85;;;3.70;99.90;;;;;;7372659;19;20022;-61
2023/04/26 02:28:05;;;;;;;11.50;3.38;;;3.80;99.90;;;;;;7376237;19;20616;-61
2023/04/26 02:30:31;;;;;;;10.70;3.03;;;3.80;99.90;;;;;;7375088;19;20339;-61
2023/04/26 02:32:58;;;;;;;11.82;3.28;;;3.90;99.90;;;;;;7375057;19;20019;-61
2023/04/26 02:35:24;;;;;;;8.75;4.28;;;3.90;99.90;;;;;;7371563;19;20042;-64
2023/04/26 02:37:53;;;;;;;9.27;3.40;;;3.80;99.90;;;;;;7373483;19;20037;-64
2023/04/26 02:40:19;;;;;;;8.35;3.60;;;3.80;99.90;;;;;;7373445;19;20018;-64
2023/04/26 02:42:47;;;;;;;8.10;3.45;;;3.80;99.90;;;;;;7374767;19;20024;-64
2023/04/26 02:45:13;;;;;;;11.90;4.00;;;3.80;99.90;;;;;;7370899;19;20074;-61
2023/04/26 02:47:40;;;;;;;9.13;3.45;;;3.70;99.90;;;;;;7374073;19;20018;-61
2023/04/26 02:50:08;;;;;;;11.43;4.00;;;3.70;99.90;;;;;;7373797;19;20045;-60
2023/04/26 02:52:35;;;;;;;9.60;3.33;;;3.70;99.90;;;;;;7373861;19;20050;-60
2023/04/26 02:55:04;;;;;;;7.15;3.17;;;3.60;99.90;;;;;;7369320;19;20031;-61
2023/04/26 02:57:31;;;;;;;6.25;3.13;;;3.60;99.90;;;;;;7375092;19;20015;-61
2023/04/26 02:59:58;;;;;;;8.10;3.40;;;3.60;99.90;;;;;;7370628;19;20033;-62
2023/04/26 03:02:24;;;;;;;9.82;3.10;;;3.60;99.90;;;;;;7373641;19;20033;-61
2023/04/26 03:04:51;;;;;;;11.48;3.35;;;3.60;99.90;;;;;;7372975;19;20018;-61
2023/04/26 03:07:18;;;;;;;7.93;3.33;;;3.50;99.90;;;;;;7374385;19;20033;-61
2023/04/26 03:09:44;;;;;;;8.27;3.00;;;3.40;99.90;;;;;;7371080;19;20022;-64
2023/04/26 03:12:11;;;;;;;9.20;3.67;;;3.40;99.90;;;;;;7374355;19;20303;-60
2023/04/26 03:14:38;;;;;;;4.80;2.97;;;3.30;99.90;;;;;;7370460;19;20018;-64
2023/04/26 03:17:05;;;;;;;9.05;3.28;;;3.20;99.90;;;;;;7373808;19;20029;-61
2023/04/26 03:19:32;;;;;;;8.02;2.88;;;3.20;99.90;;;;;;7372623;19;20014;-64
2023/04/26 03:21:59;;;;;;;10.27;3.33;;;3.10;99.90;;;;;;7371100;19;20019;-64
2023/04/26 03:24:25;;;;;;;6.78;3.38;;;3.00;99.90;;;;;;7372117;19;20039;-61
2023/04/26 03:26:52;;;;;;;10.82;3.50;;;3.00;99.90;;;;;;7371166;19;20015;-61
2023/04/26 03:29:18;;;;;;;8.90;3.67;;;2.90;99.90;;;;;;7371758;19;20597;-61
2023/04/26 03:31:44;;;;;;;8.23;3.88;;;2.90;99.90;;;;;;7374315;19;20092;-61
2023/04/26 03:34:11;;;;;;;9.85;3.72;;;2.80;99.90;;;;;;7369971;19;20022;-64
2023/04/26 03:36:37;;;;;;;9.82;3.17;;;2.80;99.90;;;;;;7366993;19;20030;-60
2023/04/26 03:39:05;;;;;;;10.35;3.50;;;2.80;99.90;;;;;;7370251;19;20078;-64
2023/04/26 03:41:32;;;;;;;8.88;3.42;;;2.70;99.90;;;;;;7371777;19;20018;-61
2023/04/26 03:44:02;;;;;;;9.20;3.15;;;2.70;99.90;;;;;;7372225;19;20026;-61
2023/04/26 03:46:28;;;;;;;6.80;3.20;;;2.60;99.90;;;;;;7371448;19;20018;-61
2023/04/26 03:48:54;;;;;;;7.68;3.72;;;2.60;99.90;;;;;;7373745;19;20450;-64
2023/04/26 03:51:20;;;;;;;10.20;4.00;;;2.50;99.90;;;;;;7371299;19;20466;-61
2023/04/26 03:53:47;;;;;;;8.90;3.67;;;2.50;99.90;;;;;;7372416;19;20417;-64
2023/04/26 03:56:14;;;;;;;8.95;4.03;;;2.50;99.90;;;;;;7368515;19;20352;-64
2023/04/26 03:58:41;;;;;;;5.03;3.42;;;2.40;99.90;;;;;;7371257;19;20597;-61
2023/04/26 04:01:07;;;;;;;6.10;3.22;;;2.40;99.90;;;;;;7370551;19;20018;-64
2023/04/26 04:03:34;;;;;;;13.75;4.43;;;2.30;99.90;;;;;;7371694;19;20036;-61
2023/04/26 04:06:00;;;;;;;8.88;3.95;;;2.30;99.90;;;;;;7367020;19;20015;-61
2023/04/26 04:08:27;;;;;;;10.48;3.45;;;2.30;99.90;;;;;;7373651;19;20020;-61
2023/04/26 04:10:55;;;;;;;10.15;3.53;;;2.30;99.90;;;;;;7369616;19;20031;-61
2023/04/26 04:13:21;;;;;;;8.90;3.42;;;2.20;99.90;;;;;;7371930;19;20809;-64
2023/04/26 04:15:48;;;;;;;9.23;3.63;;;2.20;99.90;;;;;;7368730;19;20050;-64
2023/04/26 04:18:15;;;;;;;8.13;3.53;;;2.20;99.90;;;;;;7371892;19;20052;-64
2023/04/26 04:20:42;;;;;;;8.00;3.65;;;2.20;99.90;;;;;;7371332;19;20508;-64
2023/04/26 04:23:09;;;;;;;11.35;4.53;;;2.20;99.90;;;;;;7368019;19;20827;-64
2023/04/26 04:25:37;;;;;;;8.38;3.50;;;2.20;99.90;;;;;;7365275;19;20240;-61
2023/04/26 04:28:07;;;;;;;9.18;3.63;;;2.20;99.90;;;;;;7363085;19;20019;-61
2023/04/26 04:30:34;;;;;;;7.93;3.97;;;2.20;99.90;;;;;;7370527;19;20056;-62
2023/04/26 04:33:01;;;;;;;9.98;4.25;;;2.30;99.90;;;;;;7371121;19;20098;-61
2023/04/26 04:35:32;;;;;;;13.93;3.85;;;2.40;99.90;;;;;;7368613;19;20131;-61
2023/04/26 04:37:59;;;;;;;10.33;4.10;;;2.30;99.90;;;;;;7367019;19;20719;-61
2023/04/26 04:40:26;;;;;;;9.02;3.97;;;2.30;99.90;;;;;;7369625;19;20130;-61
2023/04/26 04:42:54;;;;;;;12.07;3.78;;;2.20;99.90;;;;;;7365176;19;20015;-61
2023/04/26 04:45:21;;;;;;;11.45;4.22;;;2.20;99.90;;;;;;7366424;19;20014;-61
2023/04/26 04:47:50;;;;;;;10.63;3.90;;;2.30;99.90;;;;;;7370867;19;20022;-64
2023/04/26 04:50:16;;;;;;;8.13;3.95;;;2.30;99.90;;;;;;7368222;19;20461;-63
2023/04/26 04:52:43;;;;;;;7.97;4.13;;;2.30;99.90;;;;;;7370708;19;20025;-63
2023/04/26 04:55:10;;;;;;;12.80;4.22;;;2.30;99.90;;;;;;7367380;19;20914;-63
2023/04/26 04:57:37;;;;;;;8.95;4.03;;;2.30;99.90;;;;;;7368683;19;20062;-61
2023/04/26 05:00:14;;;;;;;7.72;3.70;;;2.30;99.90;;;;;;7366406;19;20081;-62
2023/04/26 05:02:51;;;;;;;13.48;4.70;;;2.30;99.90;;;;;;7365932;19;20015;-61
2023/04/26 05:05:18;;;;;;;7.78;4.18;;;2.40;99.90;;;;;;7366149;19;20030;-61
2023/04/26 05:07:47;;;;;;;7.45;3.92;;;2.40;99.90;;;;;;7365457;19;20027;-61
2023/04/26 05:10:15;;;;;;;10.63;4.20;;;2.50;99.90;;;;;;7360719;19;20095;-61
2023/04/26 05:12:41;;;;;;;6.97;4.22;;;2.50;99.90;;;;;;7366144;19;20070;-61
2023/04/26 05:15:08;;;;;;;11.57;4.72;;;2.60;99.90;;;;;;7365750;19;20022;-61
2023/04/26 05:17:34;;;;;;;10.00;4.00;;;2.70;99.90;;;;;;7368842;19;20666;-61
2023/04/26 05:20:10;;;;;;;13.90;4.55;;;2.80;99.90;;;;;;7366452;19;20385;-61
2023/04/26 05:22:38;;;;;;;8.43;4.32;;;3.00;99.90;;;;;;7370125;19;20667;-61
2023/04/26 05:25:07;;;;;;;7.18;3.78;;;3.10;99.90;;;;;;7367007;19;20130;-61
2023/04/26 05:27:33;;;;;;;12.30;4.70;;;3.40;99.90;;;;;;7368104;19;20814;-61
2023/04/26 05:30:22;;;;;;;9.57;4.28;;;3.60;99.90;;;;;;7365365;19;20692;-61
2023/04/26 05:33:24;;;;;;;8.05;3.83;;;3.90;99.90;;;;;;7367977;19;20018;-61
2023/04/26 05:35:56;;;;;;;7.03;3.30;;;4.10;99.90;;;;;;7371224;19;20007;-61
2023/04/26 05:38:24;;;;;;;12.30;3.72;;;4.30;99.90;;;;;;7373955;19;20014;-61
2023/04/26 05:40:50;;;;;;;6.47;3.45;;;4.40;99.90;;;;;;7374724;19;20015;-61
2023/04/26 05:43:17;;;;;;;7.78;3.30;;;4.50;99.90;;;;;;7373412;19;20018;-65
2023/04/26 05:45:51;;;;;;;8.05;3.17;;;4.60;99.90;;;;;;7376223;19;20011;-61
2023/04/26 05:48:20;;;;;;;8.10;3.53;;;4.80;99.90;;;;;;7372579;19;20011;-61
2023/04/26 05:50:46;;;;;;;7.95;3.58;;;5.00;99.90;;;;;;7376341;19;20006;-61
2023/04/26 05:53:14;;;;;;;10.40;3.20;;;5.00;99.90;;;;;;7374605;19;20014;-61
2023/04/26 05:55:41;;;;;;;7.40;3.10;;;5.30;99.90;;;;;;7374468;19;20900;-61
2023/04/26 05:58:08;;;;;;;7.97;2.92;;;5.60;99.90;;;;;;7374269;19;20010;-61
2023/04/26 06:00:35;;;;;;;7.75;3.10;;;5.90;99.90;;;;;;7376358;19;20019;-61
2023/04/26 06:03:03;;;;;;;7.65;3.30;;;6.10;99.90;;;;;;7372573;19;20078;-61
2023/04/26 06:05:30;;;;;;;7.45;2.38;;;6.40;99.90;;;;;;7375575;19;20053;-62
2023/04/26 06:07:56;;;;;;;9.55;2.90;;;6.50;99.90;;;;;;7371444;19;20085;-62
2023/04/26 06:10:23;;;;;;;9.02;3.55;;;6.80;99.90;;;;;;7375336;19;20074;-61
2023/04/26 06:12:50;;;;;;;5.88;2.30;;;7.10;99.90;;;;;;7368056;19;20024;-61
2023/04/26 06:15:17;;;;;;;6.88;1.98;;;7.30;99.90;;;;;;7372168;19;20482;-63
2023/04/26 06:17:44;;;;;;;7.82;1.88;;;7.50;99.90;;;;;;7374159;19;20018;-64
2023/04/26 06:20:10;;;;;;;6.15;2.13;;;7.60;99.90;;;;;;7370576;19;20018;-64
2023/04/26 06:22:37;;;;;;;7.32;2.42;;;7.90;99.90;;;;;;7373551;19;20072;-64
2023/04/26 06:25:05;;;;;;;6.40;2.30;;;7.70;99.90;;;;;;7372320;19;20011;-64
2023/04/26 06:27:32;;;;;;;6.95;2.08;;;7.60;99.90;;;;;;7376748;19;20011;-63
2023/04/26 06:29:59;;;;;;;7.47;3.28;;;7.50;99.90;;;;;;7372151;19;20616;-62
2023/04/26 06:32:27;;;;;;;5.35;1.65;;;7.40;99.90;;;;;;7375485;19;20014;-63
2023/04/26 06:34:54;;;;;;;9.07;2.30;;;7.40;99.90;;;;;;7371016;19;20022;-64
2023/04/26 06:37:20;;;;;;;11.68;2.00;;;7.60;99.90;;;;;;7374715;19;20685;-64
2023/04/26 06:39:47;;;;;;;6.63;2.10;;;7.70;99.90;;;;;;7372246;19;20018;-64
2023/04/26 06:42:14;;;;;;;6.57;2.30;;;7.80;99.90;;;;;;7373637;19;20014;-64
2023/04/26 06:45:07;;;;;;;7.43;2.33;;;7.80;99.90;;;;;;7369354;19;20018;-64
2023/04/26 06:47:34;;;;;;;4.95;2.28;;;8.10;99.90;;;;;;7373931;19;20102;-65
2023/04/26 06:50:03;;;;;;;5.45;1.70;;;8.50;99.90;;;;;;7373055;19;20090;-61
2023/04/26 06:52:30;;;;;;;8.48;1.83;;;8.70;99.90;;;;;;7372251;19;20018;-61
2023/04/26 06:54:59;;;;;;;6.40;2.10;;;8.70;99.90;;;;;;7370246;19;20014;-61
2023/04/26 06:57:26;;;;;;;9.55;2.10;;;8.80;99.90;;;;;;7374114;19;20706;-61
2023/04/26 06:59:52;;;;;;;4.82;2.05;;;8.70;99.90;;;;;;7373293;19;20011;-61
2023/04/26 07:02:18;;;;;;;4.40;1.98;;;8.90;99.90;;;;;;7374494;19;20126;-61
2023/04/26 07:04:45;;;;;;;6.85;2.10;;;8.70;99.90;;;;;;7374631;19;20018;-61
2023/04/26 07:07:13;;;;;;;9.32;2.40;;;8.80;99.90;;;;;;7375873;19;20018;-61
2023/04/26 07:09:39;;;;;;;7.78;2.65;;;8.80;99.90;;;;;;7371480;19;20034;-61
2023/04/26 07:12:06;;;;;;;6.90;2.85;;;9.10;99.90;;;;;;7373054;19;20022;-61
2023/04/26 07:14:34;;;;;;;5.60;2.22;;;9.10;99.90;;;;;;7373869;19;20015;-61
2023/04/26 07:17:00;;;;;;;8.55;2.45;;;9.20;99.90;;;;;;7372452;19;20497;-61
2023/04/26 07:19:26;;;;;;;6.82;2.25;;;9.70;99.90;;;;;;7370520;19;20655;-61
2023/04/26 07:21:53;;;;;;;8.98;2.58;;;9.90;99.90;;;;;;7370259;19;20023;-62
2023/04/26 07:24:19;;;;;;;5.60;2.22;;;9.90;99.90;;;;;;7372330;19;20060;-61
2023/04/26 07:26:45;;;;;;;6.93;2.10;;;10.30;99.90;;;;;;7369343;19;20366;-61
2023/04/26 07:29:12;;;;;;;7.60;2.20;;;10.60;99.90;;;;;;7372187;19;20507;-61
2023/04/26 07:31:38;;;;;;;7.25;2.25;;;10.60;99.90;;;;;;7368360;19;20612;-62
2023/04/26 07:34:04;;;;;;;6.65;2.55;;;10.80;99.90;;;;;;7372958;19;20018;-62
2023/04/26 07:36:31;;;;;;;7.88;2.13;;;10.90;99.90;;;;;;7372368;19;20102;-61
2023/04/26 07:38:57;;;;;;;9.40;2.15;;;10.40;99.90;;;;;;7369569;19;20044;-62
2023/04/26 07:41:24;;;;;;;7.63;2.17;;;10.30;99.90;;;;;;7370376;19;20022;-60
2023/04/26 07:43:50;;;;;;;5.72;2.03;;;10.30;99.90;;;;;;7365859;19;20051;-60
2023/04/26 07:46:17;;;;;;;6.30;1.88;;;10.20;99.90;;;;;;7369847;19;20035;-60
2023/04/26 07:48:43;;;;;;;7.80;2.38;;;10.20;99.90;;;;;;7364328;19;20078;-60
2023/04/26 07:51:10;;;;;;;5.70;2.10;;;10.20;99.90;;;;;;7371251;19;20022;-61
2023/04/26 07:53:37;;;;;;;5.82;1.88;;;10.40;99.90;;;;;;7363107;19;20489;-60
2023/04/26 07:56:06;;;;;;;7.38;2.13;;;10.40;99.90;;;;;;7367092;19;20595;-60
2023/04/26 07:58:36;;;;;;;4.55;1.88;;;10.40;99.90;;;;;;7373928;19;20510;-60
2023/04/26 08:01:03;;;;;;;5.15;1.70;;;10.20;99.90;;;;;;7371916;19;20074;-60
2023/04/26 08:03:29;;;;;;;5.82;1.63;;;10.20;99.90;;;;;;7368308;19;20395;-60
2023/04/26 08:05:55;;;;;;;5.38;2.08;;;10.60;99.90;;;;;;7369844;19;20025;-61
2023/04/26 08:08:22;;;;;;;5.35;2.08;;;11.20;99.40;;;;;;7374211;19;20019;-61
2023/04/26 08:10:48;;;;;;;5.72;2.63;;;11.50;99.90;;;;;;7371269;19;20597;-61
2023/04/26 08:13:15;;;;;;;5.28;1.80;;;12.10;99.90;;;;;;7370396;19;20024;-61
2023/04/26 08:15:42;;;;;;;4.88;1.85;;;12.60;98.40;;;;;;7371326;19;20045;-67
2023/04/26 08:18:08;;;;;;;3.55;1.40;;;12.10;91.20;;;;;;7373155;19;20021;-66
2023/04/26 08:20:35;;;;;;;5.63;1.50;;;11.80;91.70;;;;;;7372081;19;20479;-67
2023/04/26 08:23:01;;;;;;;6.45;1.80;;;11.60;96.60;;;;;;7369140;19;20029;-61
2023/04/26 08:25:27;;;;;;;7.32;1.67;;;11.50;76.40;;;;;;7371009;19;20201;-62
2023/04/26 08:27:54;;;;;;;6.50;1.88;;;11.50;96.20;;;;;;7372304;19;20018;-61
2023/04/26 08:30:20;;;;;;;3.67;1.63;;;11.80;77.40;;;;;;7371433;19;20015;-61
2023/04/26 08:32:46;;;;;;;6.43;1.60;;;11.80;78.70;;;;;;7372688;19;20105;-66
2023/04/26 08:35:12;;;;;;;6.22;1.95;;;11.90;95.40;;;;;;7367274;19;20019;-65
2023/04/26 08:37:39;;;;;;;6.30;1.98;;;12.10;75.80;;;;;;7373038;19;20074;-65
2023/04/26 08:40:08;;;;;;;6.57;2.03;;;11.90;95.40;;;;;;7367877;19;20028;-61
2023/04/26 08:42:42;;;;;;;5.97;1.73;;;11.50;88.30;;;;;;7371339;19;20019;-61
2023/04/26 08:45:12;;;;;;;4.85;1.63;;;11.00;92.60;;;;;;7369048;19;20492;-61
2023/04/26 08:47:49;;;;;;;6.70;1.70;;;10.70;93.70;;;;;;7373775;19;20018;-61
2023/04/26 08:50:18;;;;;;;8.73;3.03;;;10.40;95.10;;;;;;7372478;19;20019;-61
2023/04/26 08:52:47;;;;;;;4.88;1.60;;;10.40;99.90;;;;;;7368074;19;20082;-61
2023/04/26 08:55:15;;;;;;;5.57;1.85;;;10.10;97.60;;;;;;7368688;19;20019;-65
2023/04/26 08:57:50;;;;;;;8.02;2.00;;;9.70;99.90;;;;;;7371648;19;20607;-61
2023/04/26 09:00:18;;;;;;;5.55;2.00;;;9.60;99.90;;;;;;7369470;19;20584;-61
2023/04/26 09:02:47;;;;;;;5.93;2.10;;;9.50;99.90;;;;;;7371234;19;20015;-61
2023/04/26 09:05:14;;;;;;;8.48;2.05;;;9.50;99.90;;;;;;7370437;19;20116;-65
2023/04/26 09:07:46;;;;;;;5.03;1.83;;;9.50;99.90;;;;;;7369724;19;20011;-65
2023/04/26 09:10:19;;;;;;;6.88;1.88;;;9.60;99.90;;;;;;7371034;19;20030;-61
2023/04/26 09:12:52;;;;;;;6.28;1.75;;;9.60;99.90;;;;;;7376228;19;20023;-65
2023/04/26 09:15:21;;;;;;;5.95;2.25;;;9.90;99.90;;;;;;7373692;19;20022;-65
2023/04/26 09:17:50;;;;;;;4.28;1.70;;;10.00;99.90;;;;;;7376754;19;20028;-65
2023/04/26 09:20:28;;;;;;;4.53;1.88;;;10.70;99.90;;;;;;7378922;19;20044;-65
2023/04/26 09:23:05;;;;;;;3.40;1.48;;;11.40;98.40;;;;;;7376582;19;20013;-61
2023/04/26 09:25:31;;;;;;;6.18;1.60;;;12.30;78.80;;;;;;7378039;19;20011;-61
2023/04/26 09:27:58;;;;;;;5.72;1.63;;;12.60;86.60;;;;;;7376950;19;20015;-62
2023/04/26 09:30:25;;;;;;;4.13;1.90;;;12.00;75.70;;;;;;7378066;19;20014;-61
2023/04/26 09:32:56;;;;;;;5.55;1.55;;;12.00;92.30;;;;;;7375248;19;20540;-61
2023/04/26 09:35:26;;;;;;;6.45;1.30;;;12.70;84.80;;;;;;7376656;19;20035;-61
2023/04/26 09:37:53;;;;;;;7.10;1.52;;;13.00;81.90;;;;;;7377373;19;20022;-61
2023/04/26 09:40:21;;;;;;;4.28;1.40;;;13.10;68.40;;;;;;7376369;19;20018;-61
2023/04/26 09:42:56;;;;;;;7.65;2.40;;;13.50;69.40;;;;;;7377886;19;20493;-61
2023/04/26 09:45:23;;;;;;;5.85;1.70;;;14.20;66.00;;;;;;7376997;19;20029;-61
2023/04/26 09:47:49;;;;;;;4.40;1.30;;;14.70;65.30;;;;;;7378381;19;20367;-61
2023/04/26 09:50:28;;;;;;;6.00;1.70;;;15.00;60.90;;;;;;7377388;19;20055;-61
2023/04/26 09:52:55;;;;;;;7.50;1.75;;;15.20;55.50;;;;;;7375904;19;20491;-62
2023/04/26 09:55:30;;;;;;;5.97;1.30;;;15.00;55.70;;;;;;7372794;19;20054;-65
2023/04/26 09:57:59;;;;;;;4.22;1.50;;;14.60;57.00;;;;;;7373702;19;20010;-65
2023/04/26 10:00:26;;;;;;;5.30;1.60;;;14.70;57.40;;;;;;7377528;19;20023;-65
2023/04/26 10:02:54;;;;;;;4.35;1.45;;;14.00;57.90;;;;;;7370711;19;20026;-65
2023/04/26 10:05:21;;;;;;;3.85;1.40;;;13.70;58.70;;;;;;7368049;19;20030;-65
2023/04/26 10:07:49;;;;;;;5.20;1.48;;;13.10;57.40;;;;;;7366503;19;20490;-64
2023/04/26 10:10:16;;;;;;;4.50;1.40;;;13.30;56.90;;;;;;7370498;19;20762;-64
2023/04/26 10:12:43;;;;;;;3.72;1.30;;;14.20;56.80;;;;;;7372331;19;20043;-64
2023/04/26 10:15:10;;;;;;;3.60;1.60;;;14.80;55.80;;;;;;7368973;19;20482;-65
2023/04/26 10:17:38;;;;;;;3.97;1.20;;;14.90;56.20;;;;;;7371199;19;20383;-65
2023/04/26 10:20:10;;;;;;;7.20;1.70;;;14.70;54.80;;;;;;7372694;19;20991;-65
2023/04/26 10:22:45;;;;;;;5.88;1.48;;;14.10;53.30;;;;;;7373393;19;20018;-66
2023/04/26 10:25:11;;;;;;;6.20;2.10;;;13.40;55.80;;;;;;7370535;19;20011;-65
2023/04/26 10:27:46;;;;;;;6.78;2.88;;;12.90;57.60;;;;;;7374012;19;20034;-65
2023/04/26 10:30:14;;;;;;;7.93;2.15;;;12.50;63.30;;;;;;7371516;19;20022;-65
2023/04/26 10:32:55;;;;;;;6.32;2.05;;;11.80;67.20;;;;;;7371780;19;20018;-65
2023/04/26 10:35:24;;;;;;;5.47;2.13;;;11.10;96.70;;;;;;7366606;19;20110;-65
2023/04/26 10:38:08;;;;;;;7.70;3.33;;;10.90;99.90;;;;;;7372530;19;20015;-65
2023/04/26 10:40:39;;;;;;;6.75;2.28;;;10.60;99.90;;;;;;7370282;19;20063;-65
2023/04/26 10:43:14;;;;;;;10.52;5.88;;;10.50;99.90;;;;;;7369695;19;20035;-64
2023/04/26 10:45:48;;;;;;;5.88;2.47;;;10.20;99.90;;;;;;7371694;19;20599;-66
2023/04/26 10:48:18;;;;;;;4.15;2.08;;;9.60;99.90;;;;;;7374021;19;20018;-65
2023/04/26 10:51:11;;;;;;;7.10;2.63;;;9.50;99.90;;;;;;7374217;19;20014;-65
2023/04/26 10:53:46;;;;;;;6.78;2.90;;;9.50;99.90;;;;;;7370837;19;20019;-65
2023/04/26 10:56:25;;;;;;;6.53;2.42;;;9.40;99.90;;;;;;7373234;19;20335;-61
2023/04/26 10:59:08;;;;;;;7.85;2.70;;;9.40;99.90;;;;;;7372871;19;20038;-60
2023/04/26 11:01:34;;;;;;;7.07;2.47;;;9.60;99.90;;;;;;7371835;19;20018;-65
2023/04/26 11:04:07;;;;;;;6.97;2.55;;;9.70;99.90;;;;;;7375631;19;20014;-62
2023/04/26 11:06:53;;;;;;;5.13;1.98;;;9.80;99.90;;;;;;7374960;19;20018;-60
2023/04/26 11:09:36;;;;;;;6.57;2.70;;;9.60;99.90;;;;;;7377085;19;20025;-61
2023/04/26 11:12:04;;;;;;;6.40;2.10;;;9.90;99.90;;;;;;7373531;19;20927;-61
2023/04/26 11:14:31;;;;;;;26.42;18.92;;;10.00;99.90;;;;;;7372472;19;20018;-60
2023/04/26 11:16:57;;;;;;;5.13;2.28;;;10.10;99.90;;;;;;7369403;19;20375;-59
2023/04/26 11:19:25;;;;;;;31.30;24.75;;;10.20;99.90;;;;;;7373791;19;20022;-60
2023/04/26 11:21:52;;;;;;;6.57;2.72;;;10.30;99.90;;;;;;7373885;19;20472;-58
2023/04/26 11:24:24;;;;;;;9.70;2.45;;;10.20;92.10;;;;;;7372154;19;20011;-58
2023/04/26 11:26:52;;;;;;;7.25;2.42;;;10.40;92.70;;;;;;7370937;19;20778;-58
2023/04/26 11:29:19;;;;;;;5.88;2.70;;;10.60;96.90;;;;;;7373865;19;20078;-57
2023/04/26 11:31:56;;;;;;;5.20;2.70;;;11.20;93.30;;;;;;7372211;19;20041;-58
2023/04/26 11:34:34;;;;;;;6.18;3.55;;;12.00;90.50;;;;;;7376242;19;20433;-58
2023/04/26 11:37:05;;;;;;;9.52;3.42;;;13.30;86.00;;;;;;7368982;19;20022;-58
2023/04/26 11:39:35;;;;;;;6.47;2.50;;;13.80;65.20;;;;;;7372594;19;20363;-58
2023/04/26 11:42:09;;;;;;;9.30;2.88;;;13.80;64.00;;;;;;7367950;19;20022;-62
2023/04/26 11:44:36;;;;;;;5.53;2.72;;;14.30;59.50;;;;;;7369599;19;20486;-62
2023/04/26 11:47:04;;;;;;;7.65;2.13;;;14.80;60.60;;;;;;7369041;19;20493;-63
2023/04/26 11:49:31;;;;;;;4.88;1.92;;;14.80;59.00;;;;;;7373504;19;20018;-62
2023/04/26 11:51:58;;;;;;;6.65;2.22;;;14.70;54.60;;;;;;7370052;19;20026;-63
2023/04/26 11:54:32;;;;;;;6.15;2.00;;;14.40;54.80;;;;;;7371866;19;20475;-63
2023/04/26 11:56:58;;;;;;;6.57;1.90;;;14.00;53.90;;;;;;7369116;19;20022;-59
2023/04/26 11:59:26;;;;;;;7.93;2.17;;;14.00;54.30;;;;;;7373704;19;20042;-58
2023/04/26 12:01:53;;;;;;;9.80;2.10;;;13.70;56.10;;;;;;7371910;19;20106;-58
2023/04/26 12:04:29;;;;;;;5.70;2.20;;;13.70;56.50;;;;;;7371895;19;20022;-58
2023/04/26 12:06:56;;;;;;;8.82;2.33;;;13.50;55.40;;;;;;7372395;19;20766;-58
2023/04/26 12:09:26;;;;;;;6.82;3.20;;;13.50;57.20;;;;;;7372011;19;20034;-62
2023/04/26 12:11:58;;;;;;;7.45;2.28;;;13.40;57.10;;;;;;7372247;19;20107;-62
2023/04/26 12:14:34;;;;;;;9.00;3.40;;;13.30;56.70;;;;;;7372667;19;20421;-61
2023/04/26 12:17:02;;;;;;;7.75;3.33;;;12.60;61.10;;;;;;7368811;19;20024;-61
2023/04/26 12:19:36;;;;;;;8.73;3.00;;;12.40;63.90;;;;;;7372743;19;20094;-62
2023/04/26 12:22:03;;;;;;;6.10;2.30;;;12.00;66.30;;;;;;7372968;19;20371;-62
2023/04/26 12:24:36;;;;;;;8.02;2.90;;;12.00;70.80;;;;;;7371881;19;20078;-57
2023/04/26 12:27:04;;;;;;;8.52;2.83;;;11.80;79.30;;;;;;7369844;19;20366;-58
2023/04/26 12:29:31;;;;;;;8.55;2.80;;;11.60;84.50;;;;;;7375873;19;20631;-62
2023/04/26 12:31:58;;;;;;;11.43;2.83;;;11.50;94.40;;;;;;7370319;19;20019;-62
2023/04/26 12:34:25;;;;;;;7.18;2.50;;;11.40;92.20;;;;;;7373150;19;20014;-62
2023/04/26 12:36:51;;;;;;;5.07;2.25;;;11.60;88.50;;;;;;7367922;19;20026;-61
2023/04/26 12:39:17;;;;;;;5.90;2.40;;;11.70;80.70;;;;;;7369690;19;20729;-62
2023/04/26 12:41:45;;;;;;;8.77;4.50;;;11.40;81.10;;;;;;7370227;19;20014;-61
2023/04/26 12:44:11;;;;;;;6.70;2.63;;;11.50;78.80;;;;;;7372837;19;20351;-58
2023/04/26 12:46:38;;;;;;;7.07;2.20;;;11.70;77.90;;;;;;7376831;19;20022;-58
2023/04/26 12:49:04;;;;;;;8.93;2.53;;;11.50;73.40;;;;;;7379364;19;20034;-58
2023/04/26 12:51:30;;;;;;;7.97;3.10;;;11.50;77.20;;;;;;7378845;19;20086;-58
2023/04/26 12:53:57;;;;;;;6.63;2.60;;;11.50;91.20;;;;;;7371759;19;20022;-58
2023/04/26 12:56:24;;;;;;;8.15;2.95;;;11.50;94.90;;;;;;7375263;19;20358;-58